createdAt,value
2023-03-21T00:01:54.334Z,7.70
2023-03-21T00:04:22.054Z,7.80
2023-03-21T00:06:48.935Z,7.80
2023-03-21T00:09:15.593Z,7.40
2023-03-21T00:14:14.336Z,7.50
2023-03-21T00:16:41.688Z,7.30
2023-03-21T00:19:09.757Z,6.80
2023-03-21T00:21:51.838Z,7.10
2023-03-21T00:24:22.884Z,7.10
2023-03-21T00:26:50.134Z,6.80
2023-03-21T00:29:17.493Z,6.90
2023-03-21T00:31:44.157Z,7.00
2023-03-21T00:36:37.886Z,7.10
2023-03-21T00:39:06.239Z,7.00
2023-03-21T00:41:42.561Z,6.50
2023-03-21T00:44:15.609Z,7.00
2023-03-21T00:46:54.155Z,7.10
2023-03-21T00:49:27.717Z,6.80
2023-03-21T00:54:23.811Z,7.00
2023-03-21T00:56:50.563Z,6.90
2023-03-21T00:59:17.276Z,6.90
2023-03-21T01:01:46.549Z,6.90
2023-03-21T01:04:14.644Z,6.90
2023-03-21T01:06:41.975Z,6.80
2023-03-21T01:09:16.492Z,6.90
2023-03-21T01:11:43.237Z,7.00
2023-03-21T01:14:21.897Z,7.00
2023-03-21T01:16:49.366Z,7.00
2023-03-21T01:19:24.996Z,6.80
2023-03-21T01:21:54.590Z,6.90
2023-03-21T01:24:21.227Z,6.80
2023-03-21T01:26:47.885Z,6.60
2023-03-21T01:29:14.579Z,6.70
2023-03-21T01:31:41.263Z,6.30
2023-03-21T01:34:07.976Z,6.40
2023-03-21T01:36:34.696Z,6.70
2023-03-21T01:39:01.287Z,6.60
2023-03-21T01:41:42.086Z,6.60
2023-03-21T01:44:15.595Z,6.50
2023-03-21T01:46:54.542Z,6.70
2023-03-21T01:49:45.771Z,6.30
2023-03-21T01:52:26.420Z,6.60
2023-03-21T01:57:43.827Z,6.60
2023-03-21T02:00:12.726Z,6.60
2023-03-21T02:02:52.169Z,6.70
2023-03-21T02:05:22.547Z,6.70
2023-03-21T02:07:52.686Z,6.70
2023-03-21T02:10:19.872Z,6.60
2023-03-21T02:12:46.631Z,6.50
2023-03-21T02:15:14.046Z,7.50
2023-03-21T02:17:47.789Z,6.50
2023-03-21T02:20:33.037Z,6.40
2023-03-21T02:23:06.769Z,6.40
2023-03-21T02:25:49.045Z,5.70
2023-03-21T02:28:18.657Z,6.40
2023-03-21T02:30:56.090Z,6.30
2023-03-21T02:33:25.961Z,6.00
2023-03-21T02:38:42.256Z,6.10
2023-03-21T02:41:19.104Z,6.20
2023-03-21T02:43:46.456Z,6.20
2023-03-21T02:46:24.352Z,5.60
2023-03-21T02:48:56.316Z,6.20
2023-03-21T02:51:24.087Z,5.40
2023-03-21T02:54:21.355Z,5.70
2023-03-21T02:56:40.477Z,5.80
2023-03-21T02:59:07.815Z,5.90
2023-03-21T03:01:34.474Z,5.80
2023-03-21T03:04:01.309Z,5.60
2023-03-21T03:06:30.599Z,5.70
2023-03-21T03:09:04.595Z,5.80
2023-03-21T03:11:35.756Z,5.50
2023-03-21T03:14:21.408Z,6.00
2023-03-21T03:16:52.790Z,6.00
2023-03-21T03:19:26.034Z,5.50
2023-03-21T03:21:59.258Z,5.20
2023-03-21T03:24:25.992Z,5.90
2023-03-21T03:26:57.441Z,5.30
2023-03-21T03:29:25.418Z,5.80
2023-03-21T03:31:58.511Z,5.30
2023-03-21T03:34:29.494Z,5.80
2023-03-21T03:36:57.721Z,5.30
2023-03-21T03:39:33.097Z,5.20
2023-03-21T03:42:12.517Z,5.40
2023-03-21T03:44:48.463Z,4.90
2023-03-21T03:47:32.308Z,5.70
2023-03-21T03:50:13.940Z,6.10
2023-03-21T03:52:55.627Z,6.80
2023-03-21T03:55:27.066Z,6.10
2023-03-21T03:57:54.960Z,5.90
2023-03-21T04:00:21.698Z,5.70
2023-03-21T04:02:48.425Z,5.50
2023-03-21T04:05:15.286Z,6.00
2023-03-21T04:07:41.932Z,6.00
2023-03-21T04:10:08.838Z,5.40
2023-03-21T04:12:35.501Z,6.20
2023-03-21T04:15:10.216Z,5.70
2023-03-21T04:17:39.529Z,5.70
2023-03-21T04:20:12.285Z,5.90
2023-03-21T04:22:41.977Z,6.10
2023-03-21T04:25:09.031Z,5.90
2023-03-21T04:27:36.263Z,6.00
2023-03-21T04:30:03.916Z,5.20
2023-03-21T04:32:33.988Z,5.50
2023-03-21T04:35:00.946Z,5.90
2023-03-21T04:37:33.796Z,5.80
2023-03-21T04:40:00.572Z,5.80
2023-03-21T04:42:30.528Z,6.30
2023-03-21T04:44:57.057Z,5.70
2023-03-21T04:47:24.007Z,5.30
2023-03-21T04:49:51.691Z,5.70
2023-03-21T04:52:18.327Z,5.10
2023-03-21T04:54:44.992Z,5.70
2023-03-21T04:57:11.617Z,5.80
2023-03-21T04:59:38.250Z,5.70
2023-03-21T05:02:04.992Z,5.70
2023-03-21T05:04:31.592Z,5.50
2023-03-21T05:06:58.660Z,5.50
2023-03-21T05:09:25.405Z,5.50
2023-03-21T05:11:52.331Z,5.70
2023-03-21T05:14:20.630Z,5.60
2023-03-21T05:16:55.628Z,5.20
2023-03-21T05:19:34.637Z,5.70
2023-03-21T05:22:05.390Z,5.70
2023-03-21T05:24:32.858Z,5.70
2023-03-21T05:27:02.484Z,5.50
2023-03-21T05:29:32.800Z,5.50
2023-03-21T05:32:00.241Z,5.30
2023-03-21T05:34:27.926Z,5.50
2023-03-21T05:36:54.826Z,5.20
2023-03-21T05:41:48.532Z,5.60
2023-03-21T05:44:15.524Z,5.40
2023-03-21T05:46:43.372Z,5.50
2023-03-21T05:49:10.485Z,5.60
2023-03-21T05:51:37.092Z,5.60
2023-03-21T05:54:03.834Z,5.50
2023-03-21T05:56:30.492Z,7.00
2023-03-21T05:58:57.132Z,5.60
2023-03-21T06:01:23.782Z,5.60
2023-03-21T06:03:50.571Z,5.80
2023-03-21T06:06:17.282Z,5.70
2023-03-21T06:08:43.916Z,6.10
2023-03-21T06:11:18.964Z,5.90
2023-03-21T06:13:45.732Z,5.90
2023-03-21T06:16:12.830Z,6.00
2023-03-21T06:18:39.537Z,6.00
2023-03-21T06:21:06.508Z,6.00
2023-03-21T06:23:33.132Z,6.20
2023-03-21T06:25:59.769Z,6.20
2023-03-21T06:28:26.838Z,6.10
2023-03-21T06:30:53.479Z,6.30
2023-03-21T06:33:20.285Z,6.00
2023-03-21T06:35:54.054Z,6.10
2023-03-21T06:40:48.318Z,6.50
2023-03-21T06:43:16.201Z,6.10
2023-03-21T06:45:43.337Z,6.10
2023-03-21T06:48:09.996Z,5.60
2023-03-21T06:50:36.615Z,6.40
2023-03-21T06:53:03.257Z,6.50
2023-03-21T06:55:30.078Z,6.70
2023-03-21T06:57:57.538Z,6.00
2023-03-21T07:00:24.352Z,6.90
2023-03-21T07:02:51.375Z,7.20
2023-03-21T07:05:18.132Z,7.30
2023-03-21T07:07:45.057Z,7.40
2023-03-21T07:10:11.802Z,7.30
2023-03-21T07:12:38.522Z,8.30
2023-03-21T07:15:06.862Z,8.50
2023-03-21T07:17:33.695Z,8.20
2023-03-21T07:20:00.325Z,8.30
2023-03-21T07:22:26.996Z,8.60
2023-03-21T07:25:04.421Z,8.70
2023-03-21T07:27:32.174Z,9.20
2023-03-21T07:29:58.740Z,8.90
2023-03-21T07:32:30.010Z,9.10
2023-03-21T07:34:56.760Z,9.30
2023-03-21T07:37:24.004Z,9.40
2023-03-21T07:39:51.462Z,9.20
2023-03-21T07:42:18.298Z,9.00
2023-03-21T07:44:44.965Z,9.20
2023-03-21T07:47:11.618Z,9.90
2023-03-21T07:49:38.261Z,9.30
2023-03-21T07:52:05.292Z,9.50
2023-03-21T07:54:31.958Z,9.40
2023-03-21T07:56:59.191Z,9.40
2023-03-21T07:59:26.012Z,10.50
2023-03-21T08:01:52.654Z,9.70
2023-03-21T08:04:19.326Z,10.10
2023-03-21T08:06:52.974Z,10.10
2023-03-21T08:09:19.846Z,10.30
2023-03-21T08:11:46.518Z,10.30
2023-03-21T08:14:13.173Z,11.40
2023-03-21T08:16:39.861Z,10.50
2023-03-21T08:19:06.509Z,10.50
2023-03-21T08:21:33.146Z,10.50
2023-03-21T08:23:59.718Z,10.30
2023-03-21T08:26:26.584Z,10.50
2023-03-21T08:28:53.268Z,10.70
2023-03-21T08:31:21.850Z,10.70
2023-03-21T08:33:53.648Z,10.70
2023-03-21T08:36:21.485Z,11.00
2023-03-21T08:38:48.620Z,10.90
2023-03-21T08:41:15.436Z,10.80
2023-03-21T08:43:42.036Z,11.10
2023-03-21T08:46:08.758Z,11.00
2023-03-21T08:48:38.778Z,11.20
2023-03-21T08:51:06.124Z,12.10
2023-03-21T08:53:33.449Z,11.90
2023-03-21T08:56:00.251Z,11.60
2023-03-21T08:58:26.844Z,11.80
2023-03-21T09:00:53.504Z,11.70
2023-03-21T09:03:20.436Z,11.30
2023-03-21T09:05:47.065Z,11.50
2023-03-21T09:08:13.696Z,11.50
2023-03-21T09:10:40.275Z,11.80
2023-03-21T09:13:06.921Z,11.70
2023-03-21T09:15:35.337Z,11.80
2023-03-21T09:18:13.474Z,11.60
2023-03-21T09:20:40.472Z,11.90
2023-03-21T09:23:07.462Z,13.10
2023-03-21T09:25:34.169Z,11.70
2023-03-21T09:28:01.023Z,13.50
2023-03-21T09:30:28.645Z,11.30
2023-03-21T09:32:55.858Z,12.10
2023-03-21T09:35:24.355Z,12.10
2023-03-21T09:37:51.283Z,12.00
2023-03-21T09:40:29.455Z,13.10
2023-03-21T09:43:07.329Z,12.30
2023-03-21T09:45:35.494Z,12.50
2023-03-21T09:48:02.709Z,12.50
2023-03-21T09:50:34.715Z,12.70
2023-03-21T09:55:31.183Z,12.90
2023-03-21T09:58:13.907Z,12.90
2023-03-21T10:03:24.579Z,13.20
2023-03-21T10:05:52.762Z,13.00
2023-03-21T10:08:27.221Z,13.00
2023-03-21T10:13:25.444Z,13.70
2023-03-21T10:15:56.731Z,13.40
2023-03-21T10:18:26.546Z,13.40
2023-03-21T10:20:53.366Z,13.50
2023-03-21T10:23:21.421Z,14.10
2023-03-21T10:25:52.811Z,14.00
2023-03-21T10:30:48.904Z,13.80
2023-03-21T10:33:17.349Z,13.80
2023-03-21T10:35:45.919Z,13.40
2023-03-21T10:38:17.350Z,13.50
2023-03-21T10:40:44.093Z,13.90
2023-03-21T10:50:35.735Z,15.30
2023-03-21T10:55:32.414Z,15.80
2023-03-21T10:58:10.842Z,16.20
2023-03-21T11:03:08.957Z,16.10
2023-03-21T11:05:55.774Z,16.10
2023-03-21T11:08:23.673Z,16.10
2023-03-21T11:14:44.655Z,16.50
2023-03-21T11:17:36.862Z,16.20
2023-03-21T11:25:55.705Z,17.60
2023-03-21T11:28:50.830Z,17.50
2023-03-21T11:31:18.791Z,19.20
2023-03-21T11:34:02.383Z,18.10
2023-03-21T11:36:50.293Z,18.10
2023-03-21T11:44:44.230Z,19.00
2023-03-21T11:55:05.868Z,18.80
2023-03-21T11:57:44.444Z,19.00
2023-03-21T12:00:29.906Z,18.80
2023-03-21T12:03:08.657Z,20.70
2023-03-21T12:09:00.761Z,20.00
2023-03-21T12:18:04.382Z,20.30
2023-03-21T12:20:54.245Z,20.00
2023-03-21T12:23:41.232Z,20.40
2023-03-21T12:26:08.061Z,19.90
2023-03-21T12:31:30.473Z,18.90
2023-03-21T12:33:57.243Z,19.50
2023-03-21T12:36:42.766Z,19.10
2023-03-21T12:39:21.625Z,19.00
2023-03-21T12:42:00.633Z,19.60
2023-03-21T12:44:30.681Z,20.60
2023-03-21T12:47:09.212Z,19.30
2023-03-21T12:49:41.612Z,19.50
2023-03-21T12:52:11.630Z,20.50
2023-03-21T12:54:41.083Z,20.10
2023-03-21T12:57:12.839Z,19.60
2023-03-21T12:59:41.933Z,18.80
2023-03-21T13:05:02.064Z,18.90
2023-03-21T13:07:31.374Z,19.30
2023-03-21T13:09:59.410Z,19.50
2023-03-21T13:12:32.659Z,18.20
2023-03-21T13:15:12.417Z,19.30
2023-03-21T13:17:47.873Z,18.10
2023-03-21T13:20:41.258Z,18.10
2023-03-21T13:23:08.378Z,18.20
2023-03-21T13:25:44.453Z,18.50
2023-03-21T13:28:23.472Z,18.90
2023-03-21T13:30:50.238Z,18.40
2023-03-21T13:33:25.841Z,19.40
2023-03-21T13:36:06.116Z,18.90
2023-03-21T13:38:34.290Z,18.50
2023-03-21T13:41:05.347Z,18.30
2023-03-21T13:43:33.768Z,18.50
2023-03-21T13:46:11.220Z,19.60
2023-03-21T13:48:49.457Z,18.60
2023-03-21T13:51:29.098Z,18.90
2023-03-21T13:54:16.680Z,18.90
2023-03-21T13:56:51.242Z,18.70
2023-03-21T13:59:19.480Z,18.40
2023-03-21T14:01:52.122Z,18.00
2023-03-21T14:04:21.881Z,18.70
2023-03-21T14:06:57.401Z,17.70
2023-03-21T14:09:41.372Z,18.60
2023-03-21T14:12:12.758Z,18.60
2023-03-21T14:14:41.789Z,18.30
2023-03-21T14:17:12.339Z,18.40
2023-03-21T14:19:38.922Z,18.70
2023-03-21T14:22:10.543Z,17.90
2023-03-21T14:27:05.433Z,18.40
2023-03-21T14:34:28.577Z,17.00
2023-03-21T14:36:58.602Z,17.10
2023-03-21T14:39:32.966Z,17.60
2023-03-21T14:42:07.248Z,17.80
2023-03-21T14:52:11.085Z,16.70
2023-03-21T14:54:42.172Z,16.70
2023-03-21T15:02:04.736Z,16.30
2023-03-21T15:04:31.936Z,16.20
2023-03-21T15:07:01.622Z,15.70
2023-03-21T15:09:30.020Z,15.50
2023-03-21T15:11:57.602Z,15.50
2023-03-21T15:14:26.273Z,14.80
2023-03-21T15:16:53.614Z,15.40
2023-03-21T15:19:23.725Z,14.70
2023-03-21T15:21:55.452Z,15.30
2023-03-21T15:24:25.692Z,15.20
2023-03-21T15:26:56.245Z,14.10
2023-03-21T15:29:24.396Z,14.90
2023-03-21T15:31:50.991Z,14.70
2023-03-21T15:36:46.413Z,14.70
2023-03-21T15:39:14.452Z,13.90
2023-03-21T15:44:09.729Z,14.80
2023-03-21T15:46:43.506Z,14.70
2023-03-21T15:51:54.492Z,14.50
2023-03-21T15:54:26.491Z,14.40
2023-03-21T15:59:40.817Z,14.30
2023-03-21T16:02:16.956Z,14.20
2023-03-21T16:04:59.808Z,14.30
2023-03-21T16:07:26.710Z,14.20
2023-03-21T16:24:38.012Z,13.70
2023-03-21T16:34:34.815Z,12.90
2023-03-21T16:37:01.577Z,12.60
2023-03-21T16:39:28.232Z,12.30
2023-03-21T16:44:22.111Z,12.70
2023-03-21T17:09:00.335Z,12.30
